Time;durP1;ratioP1;P1;durP2;ratioP2;P2;SDS_P1;SDS_P2;PMS_P1;PMS_P2;Temp;Humidity;BMP_temperature;BMP_pressure;BME280_temperature;BME280_humidity;BME280_pressure;Samples;Min_cycle;Max_cycle;Signal;HPM_P1;HPM_P2
2021/07/23 00:01:53;;;;;;;57.50;36.50;;;;;;;;;;5065366;28;20044;-81
2021/07/23 00:04:20;;;;;;;62.60;37.00;;;;;;;;;;5082789;28;20044;-87
2021/07/23 00:06:48;;;;;;;53.88;34.45;;;;;;;;;;5064760;28;20040;-82
2021/07/23 00:09:14;;;;;;;56.47;37.03;;;;;;;;;;5064621;28;20460;-81
2021/07/23 00:11:41;;;;;;;52.65;35.67;;;;;;;;;;5083385;28;20494;-79
2021/07/23 00:14:08;;;;;;;55.55;35.42;;;;;;;;;;5045986;28;20044;-80
2021/07/23 00:16:35;;;;;;;59.42;34.33;;;;;;;;;;5080874;28;20051;-80
2021/07/23 00:19:02;;;;;;;59.63;36.53;;;;;;;;;;5082595;28;20040;-80
2021/07/23 00:21:28;;;;;;;57.78;37.38;;;;;;;;;;5082085;28;20032;-81
2021/07/23 00:23:55;;;;;;;56.97;36.75;;;;;;;;;;5080697;28;20040;-82
2021/07/23 00:26:21;;;;;;;54.90;37.20;;;;;;;;;;5064473;28;20044;-83
2021/07/23 00:28:50;;;;;;;63.22;38.05;;;;;;;;;;5080902;28;20036;-82
2021/07/23 00:31:17;;;;;;;71.93;38.88;;;;;;;;;;5039170;28;20427;-83
2021/07/23 00:33:43;;;;;;;68.82;39.85;;;;;;;;;;5037930;28;20044;-82
2021/07/23 00:36:10;;;;;;;64.55;35.10;;;;;;;;;;5081234;28;20089;-78
2021/07/23 00:38:36;;;;;;;62.65;38.40;;;;;;;;;;5080571;28;20127;-83
2021/07/23 00:41:03;;;;;;;70.38;37.78;;;;;;;;;;5062500;28;20559;-80
2021/07/23 00:43:30;;;;;;;62.03;36.80;;;;;;;;;;5063511;28;20040;-83
2021/07/23 00:45:56;;;;;;;73.32;44.72;;;;;;;;;;5077259;28;20040;-82
2021/07/23 00:48:24;;;;;;;77.53;40.13;;;;;;;;;;5077745;28;20390;-82
2021/07/23 00:50:51;;;;;;;75.00;41.70;;;;;;;;;;5079346;28;20044;-82
2021/07/23 00:53:18;;;;;;;71.38;41.88;;;;;;;;;;5062472;28;20036;-81
2021/07/23 00:55:54;;;;;;;74.18;42.03;;;;;;;;;;5070661;28;20101;-82
2021/07/23 00:58:26;;;;;;;70.65;41.85;;;;;;;;;;5077874;28;20071;-82
2021/07/23 01:00:56;;;;;;;71.20;43.20;;;;;;;;;;5052476;28;20091;-83
2021/07/23 01:03:23;;;;;;;70.93;42.38;;;;;;;;;;5061971;28;20056;-77
2021/07/23 01:05:52;;;;;;;67.60;40.58;;;;;;;;;;5081831;28;20047;-83
2021/07/23 01:08:20;;;;;;;68.13;39.25;;;;;;;;;;5063471;28;20105;-82
2021/07/23 01:10:46;;;;;;;65.22;39.05;;;;;;;;;;5070411;28;20122;-82
2021/07/23 01:13:13;;;;;;;63.53;37.58;;;;;;;;;;5059820;28;20452;-83
2021/07/23 01:15:40;;;;;;;61.90;39.08;;;;;;;;;;5065447;28;20044;-80
2021/07/23 01:18:07;;;;;;;61.15;37.65;;;;;;;;;;5081128;28;20048;-82
2021/07/23 01:20:34;;;;;;;65.15;38.58;;;;;;;;;;5101105;28;20062;-78
2021/07/23 01:23:01;;;;;;;58.65;33.67;;;;;;;;;;5081509;28;20386;-82
2021/07/23 01:25:29;;;;;;;63.60;37.03;;;;;;;;;;5056217;28;20465;-83
2021/07/23 01:27:57;;;;;;;61.50;37.30;;;;;;;;;;5080310;28;20122;-84
2021/07/23 01:30:25;;;;;;;64.65;37.90;;;;;;;;;;5057131;28;20548;-83
2021/07/23 01:32:53;;;;;;;61.75;38.65;;;;;;;;;;5066014;28;20471;-83
2021/07/23 01:35:21;;;;;;;64.80;39.75;;;;;;;;;;5062852;28;20032;-81
2021/07/23 01:37:48;;;;;;;66.57;39.50;;;;;;;;;;5066372;28;20127;-78
2021/07/23 01:40:16;;;;;;;67.20;40.03;;;;;;;;;;5045822;28;20501;-83
2021/07/23 01:42:44;;;;;;;71.22;39.53;;;;;;;;;;5080426;28;20037;-83
2021/07/23 01:45:12;;;;;;;;;;;;;;;;;;5073079;28;20036;-83
2021/07/23 01:47:39;;;;;;;64.25;40.40;;;;;;;;;;5081251;28;19916;-82
2021/07/23 01:50:06;;;;;;;63.45;40.53;;;;;;;;;;5066233;28;20036;-82
2021/07/23 01:52:33;;;;;;;79.53;42.85;;;;;;;;;;5064286;28;20123;-83
2021/07/23 01:54:59;;;;;;;61.40;39.83;;;;;;;;;;5070521;28;20126;-83
2021/07/23 01:57:26;;;;;;;68.63;40.42;;;;;;;;;;5086065;28;20032;-82
2021/07/23 01:59:52;;;;;;;64.03;40.72;;;;;;;;;;5068338;28;20051;-84
2021/07/23 02:02:19;;;;;;;63.22;40.75;;;;;;;;;;5081414;28;20047;-83
2021/07/23 02:04:46;;;;;;;59.85;37.40;;;;;;;;;;5086742;28;20044;-80
2021/07/23 02:07:12;;;;;;;59.40;36.60;;;;;;;;;;5067480;28;20092;-78
2021/07/23 02:09:39;;;;;;;71.30;37.28;;;;;;;;;;5084015;28;20040;-82
2021/07/23 02:12:05;;;;;;;56.42;33.90;;;;;;;;;;5086187;28;20093;-80
2021/07/23 02:14:32;;;;;;;58.85;35.80;;;;;;;;;;5086106;28;20161;-83
2021/07/23 02:16:58;;;;;;;59.58;35.60;;;;;;;;;;5086462;28;20051;-82
2021/07/23 02:19:25;;;;;;;65.82;37.42;;;;;;;;;;5067497;28;20092;-83
2021/07/23 02:21:51;;;;;;;62.08;36.17;;;;;;;;;;5086420;28;20059;-81
2021/07/23 02:24:18;;;;;;;58.72;35.15;;;;;;;;;;5085705;28;20059;-82
2021/07/23 02:26:45;;;;;;;59.47;35.72;;;;;;;;;;5086150;28;20044;-81
2021/07/23 02:29:11;;;;;;;62.03;36.78;;;;;;;;;;5085804;28;20044;-82
2021/07/23 02:31:37;;;;;;;59.80;35.47;;;;;;;;;;5067850;28;20051;-81
2021/07/23 02:34:04;;;;;;;57.13;35.33;;;;;;;;;;5085511;28;20043;-81
2021/07/23 02:36:30;;;;;;;57.08;31.45;;;;;;;;;;5085774;28;20943;-81
2021/07/23 02:38:57;;;;;;;62.88;35.60;;;;;;;;;;5085503;28;20045;-80
2021/07/23 02:41:23;;;;;;;57.88;35.63;;;;;;;;;;5085636;28;20050;-82
2021/07/23 02:43:50;;;;;;;61.25;37.58;;;;;;;;;;5067578;28;20063;-82
2021/07/23 02:46:17;;;;;;;62.75;38.53;;;;;;;;;;5085502;28;20048;-82
2021/07/23 02:48:43;;;;;;;62.88;39.38;;;;;;;;;;5083549;28;20044;-80
2021/07/23 02:51:10;;;;;;;65.50;35.50;;;;;;;;;;5067720;28;20548;-81
2021/07/23 02:53:37;;;;;;;62.03;37.70;;;;;;;;;;5083937;28;20123;-82
2021/07/23 02:56:04;;;;;;;67.25;37.85;;;;;;;;;;5066770;28;20036;-80
2021/07/23 02:58:32;;;;;;;59.13;37.30;;;;;;;;;;5085289;28;20047;-82
2021/07/23 03:00:58;;;;;;;61.30;39.50;;;;;;;;;;5084753;28;20040;-84
2021/07/23 03:03:25;;;;;;;66.40;38.80;;;;;;;;;;5085540;28;20036;-82
2021/07/23 03:05:51;;;;;;;61.00;37.47;;;;;;;;;;5084996;28;20039;-82
2021/07/23 03:08:18;;;;;;;64.47;36.67;;;;;;;;;;5067186;28;20453;-79
2021/07/23 03:10:44;;;;;;;63.72;38.88;;;;;;;;;;5083635;28;20044;-81
2021/07/23 03:13:11;;;;;;;55.72;35.35;;;;;;;;;;5084744;28;20502;-78
2021/07/23 03:15:37;;;;;;;55.83;36.63;;;;;;;;;;5084848;28;20128;-81
2021/07/23 03:18:04;;;;;;;55.80;35.65;;;;;;;;;;5067004;28;20085;-79
2021/07/23 03:20:30;;;;;;;60.72;38.03;;;;;;;;;;5084533;28;20067;-81
2021/07/23 03:22:57;;;;;;;55.40;38.53;;;;;;;;;;5085233;28;20048;-81
2021/07/23 03:25:23;;;;;;;58.53;38.30;;;;;;;;;;5084871;28;20043;-81
2021/07/23 03:27:50;;;;;;;63.40;37.80;;;;;;;;;;5085027;28;20044;-81
2021/07/23 03:30:16;;;;;;;60.72;36.95;;;;;;;;;;5084730;28;20040;-82
2021/07/23 03:32:42;;;;;;;58.95;37.60;;;;;;;;;;5067032;28;20123;-82
2021/07/23 03:35:09;;;;;;;61.20;39.70;;;;;;;;;;5084496;28;20050;-82
2021/07/23 03:37:36;;;;;;;59.20;37.40;;;;;;;;;;5084411;28;20049;-79
2021/07/23 03:40:03;;;;;;;59.83;37.45;;;;;;;;;;5084657;28;20093;-82
2021/07/23 03:42:31;;;;;;;60.65;38.50;;;;;;;;;;5066260;28;20559;-82
2021/07/23 03:44:57;;;;;;;52.63;36.22;;;;;;;;;;5084575;28;20063;-81
2021/07/23 03:47:24;;;;;;;58.65;35.40;;;;;;;;;;5066086;28;20411;-79
2021/07/23 03:49:50;;;;;;;58.40;37.92;;;;;;;;;;5084397;28;20058;-82
2021/07/23 03:52:17;;;;;;;55.58;36.50;;;;;;;;;;5083845;28;20175;-81
2021/07/23 03:54:44;;;;;;;58.90;36.75;;;;;;;;;;5083950;28;20150;-79
2021/07/23 03:57:10;;;;;;;56.47;37.28;;;;;;;;;;5066193;28;20418;-82
2021/07/23 03:59:37;;;;;;;52.40;34.67;;;;;;;;;;5083764;28;20063;-82
2021/07/23 04:02:04;;;;;;;49.03;35.58;;;;;;;;;;5084288;28;20452;-81
2021/07/23 04:04:30;;;;;;;51.65;34.47;;;;;;;;;;5084040;28;20040;-79
2021/07/23 04:07:01;;;;;;;53.90;34.58;;;;;;;;;;5084585;28;20036;-81
2021/07/23 04:09:28;;;;;;;52.60;33.42;;;;;;;;;;5083729;28;20040;-80
2021/07/23 04:11:55;;;;;;;48.70;32.58;;;;;;;;;;5083585;28;20035;-82
2021/07/23 04:14:22;;;;;;;50.83;33.53;;;;;;;;;;5084053;28;20032;-82
2021/07/23 04:16:50;;;;;;;48.83;33.33;;;;;;;;;;5083381;28;20455;-81
2021/07/23 04:19:17;;;;;;;53.25;33.70;;;;;;;;;;5083634;28;20048;-81
2021/07/23 04:21:46;;;;;;;57.85;35.05;;;;;;;;;;5084177;28;20039;-81
2021/07/23 04:24:13;;;;;;;45.67;30.67;;;;;;;;;;5083849;28;20432;-82
2021/07/23 04:26:39;;;;;;;46.53;32.38;;;;;;;;;;5083703;28;20056;-81
2021/07/23 04:29:06;;;;;;;52.50;34.47;;;;;;;;;;5065393;28;20060;-81
2021/07/23 04:31:32;;;;;;;57.30;35.50;;;;;;;;;;5083437;28;20043;-80
2021/07/23 04:33:59;;;;;;;50.75;34.90;;;;;;;;;;5082428;28;20037;-82
2021/07/23 04:36:27;;;;;;;51.33;35.42;;;;;;;;;;5065151;28;20096;-81
2021/07/23 04:38:53;;;;;;;54.92;35.60;;;;;;;;;;5083967;28;20044;-82
2021/07/23 04:41:21;;;;;;;53.05;36.10;;;;;;;;;;5082559;28;20097;-82
2021/07/23 04:43:47;;;;;;;55.28;36.08;;;;;;;;;;5083451;28;20047;-82
2021/07/23 04:46:14;;;;;;;51.92;34.05;;;;;;;;;;5065542;28;20028;-82
2021/07/23 04:48:40;;;;;;;57.42;35.53;;;;;;;;;;5083282;28;20528;-83
2021/07/23 04:51:07;;;;;;;53.75;35.65;;;;;;;;;;5083645;28;20047;-82
2021/07/23 04:53:33;;;;;;;50.55;33.95;;;;;;;;;;5082844;28;20036;-82
2021/07/23 04:56:02;;;;;;;53.85;34.88;;;;;;;;;;5083756;28;20036;-82
2021/07/23 04:58:29;;;;;;;49.78;34.97;;;;;;;;;;5083013;28;20567;-81
2021/07/23 05:00:56;;;;;;;51.30;33.42;;;;;;;;;;5082826;28;20138;-81
2021/07/23 05:03:38;;;;;;;56.85;35.17;;;;;;;;;;5064219;28;20130;-82
2021/07/23 05:06:08;;;;;;;52.33;35.55;;;;;;;;;;5083241;28;20044;-83
2021/07/23 05:08:36;;;;;;;57.58;37.72;;;;;;;;;;5082822;28;20036;-81
2021/07/23 05:11:03;;;;;;;57.42;37.15;;;;;;;;;;5064655;28;20056;-79
2021/07/23 05:13:32;;;;;;;60.28;39.72;;;;;;;;;;5065104;28;20177;-82
2021/07/23 05:15:58;;;;;;;60.72;37.15;;;;;;;;;;5082956;28;20093;-79
2021/07/23 05:18:26;;;;;;;60.88;37.45;;;;;;;;;;5082814;28;20174;-79
2021/07/23 05:20:53;;;;;;;60.90;38.53;;;;;;;;;;5083008;28;20109;-82
2021/07/23 05:23:20;;;;;;;56.72;37.88;;;;;;;;;;5082556;28;20040;-81
2021/07/23 05:25:47;;;;;;;60.53;38.92;;;;;;;;;;5083201;28;20036;-81
2021/07/23 05:28:13;;;;;;;58.33;37.70;;;;;;;;;;5082579;28;20115;-81
2021/07/23 05:30:41;;;;;;;62.25;37.80;;;;;;;;;;5082646;28;20044;-79
2021/07/23 05:33:07;;;;;;;62.78;38.17;;;;;;;;;;5064710;28;20040;-81
2021/07/23 05:35:34;;;;;;;56.45;37.83;;;;;;;;;;5064493;28;20599;-83
2021/07/23 05:38:01;;;;;;;55.20;38.00;;;;;;;;;;5083221;28;20059;-80
2021/07/23 05:40:27;;;;;;;63.88;38.70;;;;;;;;;;5082275;28;20193;-81
2021/07/23 05:42:54;;;;;;;55.17;35.78;;;;;;;;;;5083131;28;20040;-78
2021/07/23 05:45:21;;;;;;;58.03;36.67;;;;;;;;;;5082330;28;20040;-82
2021/07/23 05:47:47;;;;;;;60.28;35.25;;;;;;;;;;5063894;28;20517;-81
2021/07/23 05:50:14;;;;;;;63.83;39.50;;;;;;;;;;5082938;28;20036;-81
2021/07/23 05:52:40;;;;;;;61.25;38.28;;;;;;;;;;5082108;28;20047;-80
2021/07/23 05:55:07;;;;;;;69.18;39.20;;;;;;;;;;5082808;28;20040;-81
2021/07/23 05:57:34;;;;;;;61.20;39.28;;;;;;;;;;5082014;28;20533;-81
2021/07/23 06:00:01;;;;;;;58.58;38.33;;;;;;;;;;5081546;28;20994;-79
2021/07/23 06:02:28;;;;;;;61.13;38.30;;;;;;;;;;5082836;28;20040;-80
2021/07/23 06:04:54;;;;;;;58.80;39.22;;;;;;;;;;5082930;28;20078;-83
2021/07/23 06:07:21;;;;;;;61.63;37.33;;;;;;;;;;5082638;28;20032;-79
2021/07/23 06:09:47;;;;;;;64.85;39.55;;;;;;;;;;5082622;28;20048;-81
2021/07/23 06:12:14;;;;;;;64.72;38.90;;;;;;;;;;5082305;28;20037;-81
2021/07/23 06:14:40;;;;;;;67.70;41.47;;;;;;;;;;5065151;28;20568;-81
2021/07/23 06:17:07;;;;;;;94.80;58.15;;;;;;;;;;5086345;28;20090;-80
2021/07/23 06:19:34;;;;;;;86.10;52.50;;;;;;;;;;5085932;28;20058;-79
2021/07/23 06:22:00;;;;;;;75.20;47.05;;;;;;;;;;5086568;28;20051;-81
2021/07/23 06:24:27;;;;;;;75.88;47.25;;;;;;;;;;5085894;28;20551;-80
2021/07/23 06:26:53;;;;;;;83.55;52.00;;;;;;;;;;5086501;28;20040;-80
2021/07/23 06:29:20;;;;;;;87.97;54.67;;;;;;;;;;5085756;28;20123;-80
2021/07/23 06:31:46;;;;;;;88.00;54.05;;;;;;;;;;5068482;28;20036;-81
2021/07/23 06:34:13;;;;;;;76.28;47.45;;;;;;;;;;5068146;28;20042;-81
2021/07/23 06:36:39;;;;;;;73.78;46.03;;;;;;;;;;5067476;28;20044;-78
2021/07/23 06:39:06;;;;;;;68.68;44.53;;;;;;;;;;5086348;28;20089;-81
2021/07/23 06:41:33;;;;;;;73.38;46.17;;;;;;;;;;5085314;28;20084;-81
2021/07/23 06:43:59;;;;;;;68.28;42.47;;;;;;;;;;5086452;28;20067;-78
2021/07/23 06:46:26;;;;;;;71.60;44.30;;;;;;;;;;5067339;28;20040;-81
2021/07/23 06:48:52;;;;;;;75.85;44.85;;;;;;;;;;5085809;28;20059;-77
2021/07/23 06:51:19;;;;;;;79.25;48.35;;;;;;;;;;5085817;28;20130;-82
2021/07/23 06:53:45;;;;;;;86.75;52.78;;;;;;;;;;5086057;28;20105;-81
2021/07/23 06:56:12;;;;;;;85.30;54.90;;;;;;;;;;5085904;28;20482;-80
2021/07/23 06:58:38;;;;;;;84.78;52.25;;;;;;;;;;5085268;28;20044;-78
2021/07/23 07:01:08;;;;;;;74.82;48.33;;;;;;;;;;5086071;28;20039;-81
2021/07/23 07:03:35;;;;;;;68.55;42.78;;;;;;;;;;5085261;28;20044;-79
2021/07/23 07:06:07;;;;;;;60.70;39.33;;;;;;;;;;5085357;28;20047;-81
2021/07/23 07:08:33;;;;;;;62.55;39.67;;;;;;;;;;5085482;28;20062;-80
2021/07/23 07:11:01;;;;;;;73.32;44.13;;;;;;;;;;5085660;28;20087;-80
2021/07/23 07:13:27;;;;;;;64.30;39.22;;;;;;;;;;5085353;28;20044;-80
2021/07/23 07:15:54;;;;;;;58.38;38.88;;;;;;;;;;5085480;28;21169;-80
2021/07/23 07:18:20;;;;;;;63.88;38.35;;;;;;;;;;5067073;28;20036;-80
2021/07/23 07:20:47;;;;;;;67.38;39.47;;;;;;;;;;5085586;28;20078;-80
2021/07/23 07:23:13;;;;;;;60.63;39.15;;;;;;;;;;5085082;28;20043;-79
2021/07/23 07:25:40;;;;;;;55.30;37.55;;;;;;;;;;5085025;28;20048;-78
2021/07/23 07:28:06;;;;;;;59.00;37.10;;;;;;;;;;5084142;28;20521;-80
2021/07/23 07:30:33;;;;;;;63.38;37.85;;;;;;;;;;5066758;28;20032;-82
2021/07/23 07:32:59;;;;;;;57.60;34.50;;;;;;;;;;5066853;28;20414;-82
2021/07/23 07:35:26;;;;;;;64.20;37.10;;;;;;;;;;5084402;28;20040;-82
2021/07/23 07:37:52;;;;;;;65.85;40.08;;;;;;;;;;5085110;28;20571;-81
2021/07/23 07:40:19;;;;;;;62.75;41.58;;;;;;;;;;5084351;28;20040;-81
2021/07/23 07:42:46;;;;;;;73.90;42.80;;;;;;;;;;5084630;28;20517;-80
2021/07/23 07:45:12;;;;;;;66.43;40.10;;;;;;;;;;5084951;28;20040;-81
2021/07/23 07:47:39;;;;;;;66.68;40.40;;;;;;;;;;5084461;28;20047;-81
2021/07/23 07:50:06;;;;;;;66.30;40.72;;;;;;;;;;5066357;28;20059;-79
2021/07/23 07:52:33;;;;;;;60.75;39.05;;;;;;;;;;5066482;28;20089;-82
2021/07/23 07:54:59;;;;;;;70.43;40.33;;;;;;;;;;5066493;28;20044;-82
2021/07/23 07:57:26;;;;;;;59.67;37.95;;;;;;;;;;5084074;28;20036;-80
2021/07/23 07:59:52;;;;;;;57.75;35.60;;;;;;;;;;5082887;28;20493;-78
2021/07/23 08:02:19;;;;;;;56.00;36.08;;;;;;;;;;5084484;28;20040;-81
2021/07/23 08:04:45;;;;;;;57.08;37.28;;;;;;;;;;5083664;28;20059;-81
2021/07/23 08:07:18;;;;;;;60.63;37.08;;;;;;;;;;5084586;28;20044;-82
2021/07/23 08:09:53;;;;;;;54.72;35.03;;;;;;;;;;5083868;28;20063;-81
2021/07/23 08:12:22;;;;;;;55.45;35.97;;;;;;;;;;5084114;28;20517;-80
2021/07/23 08:14:48;;;;;;;52.13;34.15;;;;;;;;;;5084028;28;20111;-80
2021/07/23 08:17:15;;;;;;;56.22;33.88;;;;;;;;;;5066182;28;20406;-80
2021/07/23 08:19:42;;;;;;;57.95;35.00;;;;;;;;;;5082457;28;20123;-81
2021/07/23 08:22:09;;;;;;;56.85;36.25;;;;;;;;;;5065531;28;20430;-78
2021/07/23 08:24:36;;;;;;;56.75;34.45;;;;;;;;;;5084284;28;20574;-78
2021/07/23 08:27:03;;;;;;;61.80;43.00;;;;;;;;;;5065573;28;20039;-81
2021/07/23 08:29:29;;;;;;;63.58;41.78;;;;;;;;;;5084156;28;20039;-82
2021/07/23 08:32:04;;;;;;;49.58;33.17;;;;;;;;;;5083869;28;20056;-78
2021/07/23 08:34:30;;;;;;;54.72;33.95;;;;;;;;;;5083723;28;20119;-81
2021/07/23 08:37:00;;;;;;;53.22;33.08;;;;;;;;;;5083958;28;20044;-79
2021/07/23 08:39:26;;;;;;;54.20;33.28;;;;;;;;;;5083401;28;20459;-81
2021/07/23 08:41:53;;;;;;;61.28;43.08;;;;;;;;;;5083462;28;20594;-79
2021/07/23 08:44:19;;;;;;;50.05;33.15;;;;;;;;;;5065585;28;20055;-82
2021/07/23 08:46:46;;;;;;;45.55;29.20;;;;;;;;;;5065155;28;20043;-81
2021/07/23 08:49:14;;;;;;;34.22;24.33;;;;;;;;;;5083605;28;20036;-80
2021/07/23 08:51:40;;;;;;;32.20;24.02;;;;;;;;;;5083151;28;20040;-81
2021/07/23 08:54:07;;;;;;;33.92;23.55;;;;;;;;;;5065540;28;20044;-82
2021/07/23 08:56:33;;;;;;;29.55;21.52;;;;;;;;;;5065064;28;20043;-82
2021/07/23 08:59:00;;;;;;;30.17;20.52;;;;;;;;;;5083523;28;20575;-82
2021/07/23 09:01:26;;;;;;;34.30;21.80;;;;;;;;;;5083216;28;20398;-82
2021/07/23 09:03:53;;;;;;;32.65;23.20;;;;;;;;;;5083641;28;21275;-81
2021/07/23 09:06:22;;;;;;;35.60;24.60;;;;;;;;;;5083165;28;20042;-80
2021/07/23 09:08:48;;;;;;;;;;;;;;;;;;5083471;28;20036;-81
2021/07/23 09:11:16;;;;;;;36.20;24.50;;;;;;;;;;5083462;28;20435;-82
2021/07/23 09:13:42;;;;;;;34.58;24.88;;;;;;;;;;5083388;28;20490;-82
2021/07/23 09:16:43;;;;;;;36.20;25.20;;;;;;;;;;5082764;28;20521;-79
2021/07/23 09:19:11;;;;;;;36.53;24.58;;;;;;;;;;5020409;28;20049;-82
2021/07/23 09:21:39;;;;;;;41.22;25.75;;;;;;;;;;5071426;28;20048;-81
2021/07/23 09:24:07;;;;;;;43.10;26.40;;;;;;;;;;5082936;28;20032;-82
2021/07/23 09:26:45;;;;;;;38.95;25.83;;;;;;;;;;5064090;28;20121;-82
2021/07/23 09:29:14;;;;;;;39.65;26.60;;;;;;;;;;5054391;28;20119;-81
2021/07/23 09:32:00;;;;;;;39.90;26.92;;;;;;;;;;5082865;28;20032;-81
2021/07/23 09:34:33;;;;;;;40.25;26.67;;;;;;;;;;5082918;28;20037;-81
2021/07/23 09:37:07;;;;;;;36.90;24.73;;;;;;;;;;5082820;28;20044;-81
2021/07/23 09:39:34;;;;;;;41.35;25.35;;;;;;;;;;5082606;28;20093;-82
2021/07/23 09:42:01;;;;;;;36.15;23.35;;;;;;;;;;5082699;28;20059;-79
2021/07/23 09:44:28;;;;;;;36.90;25.10;;;;;;;;;;5083182;28;20041;-81
2021/07/23 09:46:55;;;;;;;39.05;22.88;;;;;;;;;;5082284;28;20064;-80
2021/07/23 09:49:23;;;;;;;37.85;23.92;;;;;;;;;;5064601;28;20102;-81
2021/07/23 09:51:50;;;;;;;37.75;24.05;;;;;;;;;;5086836;28;20521;-79
2021/07/23 09:54:20;;;;;;;39.92;25.40;;;;;;;;;;5086689;28;20063;-78
2021/07/23 09:56:48;;;;;;;41.38;25.80;;;;;;;;;;5086608;28;20128;-78
2021/07/23 09:59:40;;;;;;;38.90;26.15;;;;;;;;;;5086575;28;20052;-80
2021/07/23 10:02:16;;;;;;;37.28;24.58;;;;;;;;;;5059561;28;20040;-80
2021/07/23 10:04:47;;;;;;;41.03;25.88;;;;;;;;;;5068203;28;20074;-79
2021/07/23 10:07:20;;;;;;;42.30;26.17;;;;;;;;;;5086240;28;20036;-83
2021/07/23 10:09:48;;;;;;;37.55;25.33;;;;;;;;;;5085998;28;20036;-80
2021/07/23 10:12:16;;;;;;;43.35;25.58;;;;;;;;;;5086162;28;20100;-81
2021/07/23 10:14:46;;;;;;;38.58;24.35;;;;;;;;;;5062434;28;20040;-81
2021/07/23 10:17:14;;;;;;;38.17;23.42;;;;;;;;;;5086463;28;20047;-84
2021/07/23 10:19:41;;;;;;;38.22;22.67;;;;;;;;;;5080789;28;20100;-84
2021/07/23 10:22:12;;;;;;;38.65;24.67;;;;;;;;;;5067813;28;20551;-84
2021/07/23 10:24:41;;;;;;;42.28;24.38;;;;;;;;;;5074978;28;20032;-81
2021/07/23 10:27:09;;;;;;;38.05;23.60;;;;;;;;;;5084060;28;20039;-84
2021/07/23 10:29:45;;;;;;;36.83;24.77;;;;;;;;;;5086101;28;20051;-83
2021/07/23 10:32:27;;;;;;;38.28;23.83;;;;;;;;;;5085933;28;20098;-84
2021/07/23 10:35:17;;;;;;;41.13;24.42;;;;;;;;;;5082736;28;20044;-82
2021/07/23 10:37:44;;;;;;;36.78;24.33;;;;;;;;;;5085905;28;20044;-81
2021/07/23 10:40:13;;;;;;;44.10;23.13;;;;;;;;;;5059377;28;20044;-85
2021/07/23 10:42:41;;;;;;;34.30;22.42;;;;;;;;;;5061991;28;20040;-82
2021/07/23 10:45:19;;;;;;;33.20;21.40;;;;;;;;;;5062373;28;20032;-82
2021/07/23 10:47:46;;;;;;;35.92;22.30;;;;;;;;;;5086840;28;20044;-81
2021/07/23 10:50:23;;;;;;;34.50;21.35;;;;;;;;;;5077594;28;20052;-84
2021/07/23 10:52:49;;;;;;;38.10;22.02;;;;;;;;;;5086172;28;20063;-84
2021/07/23 10:55:29;;;;;;;35.53;23.25;;;;;;;;;;5076015;28;20032;-85
2021/07/23 10:58:11;;;;;;;33.78;22.15;;;;;;;;;;5081956;28;20036;-83
2021/07/23 11:01:01;;;;;;;38.17;22.17;;;;;;;;;;5057682;28;20044;-83
2021/07/23 11:03:37;;;;;;;37.80;21.23;;;;;;;;;;5067875;28;20051;-82
2021/07/23 11:06:22;;;;;;;35.55;21.30;;;;;;;;;;5086646;28;20043;-82
2021/07/23 11:08:56;;;;;;;30.98;19.27;;;;;;;;;;5087421;28;20071;-80
2021/07/23 11:11:27;;;;;;;33.80;20.33;;;;;;;;;;5088816;28;20044;-83
2021/07/23 11:13:55;;;;;;;34.28;21.92;;;;;;;;;;5089483;28;20073;-82
2021/07/23 11:16:27;;;;;;;31.20;20.55;;;;;;;;;;5089956;28;20043;-83
2021/07/23 11:18:58;;;;;;;35.53;21.23;;;;;;;;;;5072844;28;20061;-83
2021/07/23 11:21:34;;;;;;;35.47;21.60;;;;;;;;;;5090146;28;20402;-84
2021/07/23 11:24:01;;;;;;;36.15;21.98;;;;;;;;;;5071662;28;20039;-83
2021/07/23 11:26:27;;;;;;;37.22;22.52;;;;;;;;;;5090546;28;20123;-81
2021/07/23 11:28:56;;;;;;;34.90;22.05;;;;;;;;;;5090146;28;20040;-83
2021/07/23 11:31:28;;;;;;;38.20;22.90;;;;;;;;;;5089106;28;20040;-82
2021/07/23 11:33:55;;;;;;;35.35;22.35;;;;;;;;;;5072184;28;20047;-82
2021/07/23 11:36:36;;;;;;;36.38;22.40;;;;;;;;;;5071315;28;20044;-80
2021/07/23 11:39:07;;;;;;;38.65;22.65;;;;;;;;;;5069558;28;20059;-83
2021/07/23 11:41:35;;;;;;;37.80;23.75;;;;;;;;;;5088602;28;20040;-82
2021/07/23 11:44:08;;;;;;;41.10;23.80;;;;;;;;;;5086050;28;20040;-82
2021/07/23 11:46:36;;;;;;;36.75;24.02;;;;;;;;;;5085316;28;20044;-83
2021/07/23 11:49:03;;;;;;;36.20;22.52;;;;;;;;;;5067140;28;20429;-84
2021/07/23 11:51:41;;;;;;;40.38;22.80;;;;;;;;;;5085830;28;20082;-83
2021/07/23 11:54:08;;;;;;;35.05;23.23;;;;;;;;;;5085548;28;20036;-83
2021/07/23 11:56:35;;;;;;;35.08;23.58;;;;;;;;;;5085119;28;20059;-85
2021/07/23 11:59:05;;;;;;;37.42;23.77;;;;;;;;;;5085603;28;20040;-85
2021/07/23 12:01:40;;;;;;;35.65;23.48;;;;;;;;;;5085449;28;20035;-84
2021/07/23 12:04:10;;;;;;;33.03;23.17;;;;;;;;;;5085545;28;20541;-84
2021/07/23 12:06:44;;;;;;;30.55;20.63;;;;;;;;;;5085210;28;20508;-83
2021/07/23 12:09:12;;;;;;;37.25;23.30;;;;;;;;;;5085271;28;20036;-84
2021/07/23 12:11:40;;;;;;;35.13;21.25;;;;;;;;;;5084821;28;20059;-81
2021/07/23 12:14:11;;;;;;;31.33;21.20;;;;;;;;;;5066684;28;20051;-84
2021/07/23 12:16:41;;;;;;;33.80;21.80;;;;;;;;;;5085423;28;20040;-84
2021/07/23 12:19:11;;;;;;;29.10;19.38;;;;;;;;;;5085027;28;20484;-84
2021/07/23 12:21:39;;;;;;;28.92;20.23;;;;;;;;;;5084589;28;20051;-84
2021/07/23 12:24:07;;;;;;;29.67;19.92;;;;;;;;;;5085595;28;20061;-83
2021/07/23 12:26:36;;;;;;;29.23;19.35;;;;;;;;;;5084704;28;20494;-82
2021/07/23 12:29:05;;;;;;;28.45;17.95;;;;;;;;;;5084852;28;20043;-84
2021/07/23 12:31:33;;;;;;;31.13;19.42;;;;;;;;;;5084248;28;20047;-84
2021/07/23 12:34:08;;;;;;;29.70;19.15;;;;;;;;;;5084766;28;20071;-85
2021/07/23 12:36:42;;;;;;;29.30;19.08;;;;;;;;;;5084646;28;20131;-83
2021/07/23 12:39:09;;;;;;;26.92;16.35;;;;;;;;;;5084434;28;20043;-83
2021/07/23 12:41:35;;;;;;;28.25;18.13;;;;;;;;;;5084697;28;20071;-83
2021/07/23 12:44:10;;;;;;;26.02;16.65;;;;;;;;;;5084982;28;20081;-83
2021/07/23 12:46:39;;;;;;;26.27;17.45;;;;;;;;;;5084552;28;20524;-83
2021/07/23 12:49:17;;;;;;;29.73;17.50;;;;;;;;;;5065827;28;20413;-84
2021/07/23 12:51:59;;;;;;;25.05;18.20;;;;;;;;;;5084267;28;20123;-83
2021/07/23 12:54:41;;;;;;;25.05;17.02;;;;;;;;;;5084453;28;20052;-83
2021/07/23 12:57:16;;;;;;;26.33;16.92;;;;;;;;;;5066000;28;20123;-83
2021/07/23 12:59:44;;;;;;;30.80;17.75;;;;;;;;;;5083856;28;20040;-83
2021/07/23 13:02:14;;;;;;;26.70;17.50;;;;;;;;;;5083750;28;20040;-83
2021/07/23 13:04:41;;;;;;;26.85;17.27;;;;;;;;;;5083915;28;20047;-80
2021/07/23 13:07:08;;;;;;;25.33;16.73;;;;;;;;;;5084526;28;20059;-83
2021/07/23 13:09:41;;;;;;;21.92;15.73;;;;;;;;;;5065486;28;20040;-84
2021/07/23 13:12:08;;;;;;;18.23;14.07;;;;;;;;;;5084037;28;20039;-83
2021/07/23 13:14:35;;;;;;;27.60;17.35;;;;;;;;;;5083890;28;20065;-84
2021/07/23 13:17:02;;;;;;;23.85;15.70;;;;;;;;;;5084284;28;20040;-83
2021/07/23 13:19:29;;;;;;;22.95;16.27;;;;;;;;;;5083776;28;20044;-83
2021/07/23 13:21:55;;;;;;;22.40;15.35;;;;;;;;;;5084506;28;20050;-84
2021/07/23 13:24:22;;;;;;;20.73;16.30;;;;;;;;;;5065310;28;20036;-84
2021/07/23 13:26:48;;;;;;;25.38;16.27;;;;;;;;;;5084299;28;20125;-83
2021/07/23 13:29:15;;;;;;;25.45;15.48;;;;;;;;;;5083749;28;20043;-84
2021/07/23 13:31:41;;;;;;;20.75;14.27;;;;;;;;;;5083985;28;20100;-80
2021/07/23 13:34:11;;;;;;;22.55;15.82;;;;;;;;;;5066288;28;20036;-84
2021/07/23 13:36:44;;;;;;;19.58;12.52;;;;;;;;;;5084244;28;20067;-84
2021/07/23 13:39:15;;;;;;;19.08;12.23;;;;;;;;;;5065586;28;20502;-83
2021/07/23 13:41:43;;;;;;;20.45;13.63;;;;;;;;;;5065524;28;20058;-83
2021/07/23 13:44:10;;;;;;;17.40;11.27;;;;;;;;;;5065597;28;20115;-85
2021/07/23 13:46:42;;;;;;;17.40;12.27;;;;;;;;;;5065749;28;20490;-81
2021/07/23 13:49:09;;;;;;;15.77;10.43;;;;;;;;;;5065270;28;20127;-84
2021/07/23 13:51:35;;;;;;;18.38;11.30;;;;;;;;;;5082577;28;20040;-81
2021/07/23 13:54:03;;;;;;;15.43;10.73;;;;;;;;;;5084250;28;20051;-82
2021/07/23 13:56:31;;;;;;;14.63;9.88;;;;;;;;;;5083288;28;20071;-84
2021/07/23 13:59:02;;;;;;;13.63;9.35;;;;;;;;;;5083689;28;20487;-85
2021/07/23 14:01:32;;;;;;;15.43;9.82;;;;;;;;;;5083473;28;20131;-82
2021/07/23 14:03:59;;;;;;;16.95;10.25;;;;;;;;;;5083650;28;20389;-85
2021/07/23 14:06:27;;;;;;;14.00;8.95;;;;;;;;;;5083652;28;20070;-86
2021/07/23 14:08:58;;;;;;;14.05;8.05;;;;;;;;;;5082862;28;20050;-84
2021/07/23 14:11:25;;;;;;;12.02;8.02;;;;;;;;;;5083336;28;20055;-84
2021/07/23 14:13:52;;;;;;;12.50;7.53;;;;;;;;;;5083839;28;20044;-84
2021/07/23 14:16:19;;;;;;;14.98;7.82;;;;;;;;;;5083234;28;20032;-84
2021/07/23 14:18:47;;;;;;;12.40;7.55;;;;;;;;;;5083494;28;20393;-82
2021/07/23 14:21:14;;;;;;;11.07;8.15;;;;;;;;;;5084130;28;20070;-86
2021/07/23 14:23:41;;;;;;;13.00;7.65;;;;;;;;;;5066220;28;20032;-85
2021/07/23 14:26:08;;;;;;;12.98;8.07;;;;;;;;;;5084032;28;20127;-84